Time;durP1;ratioP1;P1;durP2;ratioP2;P2;SDS_P1;SDS_P2;PMS_P1;PMS_P2;Temp;Humidity;BMP_temperature;BMP_pressure;BME280_temperature;BME280_humidity;BME280_pressure;Samples;Min_cycle;Max_cycle;Signal;HPM_P1;HPM_P2
2023/03/23 00:01:24;;;;;;;21.35;17.52;;;11.80;99.90;;;;;;5053047;28;20241;-77
2023/03/23 00:03:52;;;;;;;20.38;18.27;;;11.80;99.90;;;;;;5040026;28;20227;-78
2023/03/23 00:06:22;;;;;;;22.92;19.45;;;11.80;99.90;;;;;;5050857;28;20582;-78
2023/03/23 00:08:56;;;;;;;19.67;17.30;;;11.70;99.90;;;;;;5048232;28;20242;-79
2023/03/23 00:11:28;;;;;;;20.48;18.27;;;11.70;99.90;;;;;;5047313;28;20238;-78
2023/03/23 00:14:00;;;;;;;20.98;18.00;;;11.70;99.90;;;;;;5048346;28;20700;-79
2023/03/23 00:16:30;;;;;;;24.20;18.67;;;11.70;99.90;;;;;;5045098;28;20287;-77
2023/03/23 00:19:02;;;;;;;20.17;17.80;;;11.70;99.90;;;;;;5044846;28;20787;-79
2023/03/23 00:21:36;;;;;;;21.88;19.08;;;11.80;99.90;;;;;;5047456;28;20204;-78
2023/03/23 00:24:07;;;;;;;25.73;21.55;;;11.70;99.90;;;;;;5046856;28;20236;-79
2023/03/23 00:26:39;;;;;;;23.05;19.17;;;11.70;99.90;;;;;;5046500;28;20222;-79
2023/03/23 00:29:13;;;;;;;21.83;19.52;;;11.70;99.90;;;;;;5044045;28;20212;-79
2023/03/23 00:31:40;;;;;;;22.70;19.25;;;11.80;99.90;;;;;;5051644;28;20271;-79
2023/03/23 00:34:12;;;;;;;20.67;18.60;;;11.80;99.90;;;;;;5047445;28;20219;-78
2023/03/23 00:36:42;;;;;;;22.00;19.48;;;11.80;99.90;;;;;;5048361;28;20204;-78
2023/03/23 00:39:09;;;;;;;22.05;17.70;;;11.80;99.90;;;;;;5048454;28;20199;-77
2023/03/23 00:41:50;;;;;;;25.67;20.95;;;11.80;99.90;;;;;;5044529;28;20753;-78
2023/03/23 00:44:17;;;;;;;22.35;19.15;;;11.80;99.90;;;;;;5040414;28;20235;-78
2023/03/23 00:46:57;;;;;;;28.90;20.85;;;11.80;99.90;;;;;;5052714;28;20278;-78
2023/03/23 00:49:26;;;;;;;20.63;18.50;;;11.80;99.90;;;;;;5052511;28;20736;-79
2023/03/23 00:52:02;;;;;;;20.27;18.17;;;11.80;99.90;;;;;;5064868;28;20211;-80
2023/03/23 00:54:38;;;;;;;19.90;17.55;;;11.80;99.90;;;;;;5046793;28;20212;-80
2023/03/23 00:57:24;;;;;;;25.52;21.10;;;11.80;99.90;;;;;;5058177;28;20188;-79
2023/03/23 00:59:51;;;;;;;20.63;16.85;;;11.50;99.90;;;;;;5060102;28;20173;-79
2023/03/23 01:02:26;;;;;;;22.45;19.42;;;11.70;99.90;;;;;;5060614;28;20279;-81
2023/03/23 01:04:53;;;;;;;23.77;18.58;;;11.70;99.90;;;;;;5060015;28;20305;-79
2023/03/23 01:07:24;;;;;;;21.30;19.08;;;11.70;99.90;;;;;;5054350;28;20216;-81
2023/03/23 01:09:54;;;;;;;19.35;17.35;;;11.80;99.90;;;;;;5055525;28;20203;-83
2023/03/23 01:12:24;;;;;;;20.70;18.58;;;11.80;99.90;;;;;;5067073;28;20182;-81
2023/03/23 01:14:51;;;;;;;24.88;18.67;;;11.80;99.90;;;;;;5072942;28;20241;-79
2023/03/23 01:17:18;;;;;;;19.05;17.02;;;11.80;99.90;;;;;;5059312;28;20237;-82
2023/03/23 01:19:45;;;;;;;19.70;17.63;;;11.80;99.90;;;;;;5060865;28;20187;-79
2023/03/23 01:22:12;;;;;;;24.50;20.20;;;11.80;99.90;;;;;;5065440;28;20250;-80
2023/03/23 01:24:39;;;;;;;22.25;18.80;;;11.80;99.90;;;;;;5056195;28;20224;-77
2023/03/23 01:27:06;;;;;;;24.02;20.15;;;11.80;99.90;;;;;;5053119;28;20204;-78
2023/03/23 01:29:38;;;;;;;22.75;20.38;;;11.80;99.90;;;;;;5055626;28;20207;-78
2023/03/23 01:32:05;;;;;;;22.27;19.88;;;11.80;99.90;;;;;;5056672;28;20230;-78
2023/03/23 01:34:32;;;;;;;21.50;19.35;;;11.70;99.90;;;;;;5055745;28;20261;-78
2023/03/23 01:36:59;;;;;;;22.48;19.95;;;11.70;99.90;;;;;;5060993;28;20226;-78
2023/03/23 01:39:26;;;;;;;24.45;21.10;;;11.70;99.90;;;;;;5048515;28;20207;-78
2023/03/23 01:41:53;;;;;;;25.73;22.88;;;11.70;99.90;;;;;;5050888;28;20202;-79
2023/03/23 01:44:57;;;;;;;29.60;22.23;;;11.80;99.90;;;;;;5045946;28;20289;-78
2023/03/23 01:47:26;;;;;;;25.63;22.67;;;11.70;99.90;;;;;;5041166;28;20202;-78
2023/03/23 01:49:53;;;;;;;25.40;21.08;;;11.60;99.90;;;;;;5045774;28;20211;-77
2023/03/23 01:52:26;;;;;;;27.38;21.98;;;11.70;99.90;;;;;;5042649;28;20204;-77
2023/03/23 01:54:56;;;;;;;27.70;22.30;;;11.70;99.90;;;;;;5041008;28;20294;-78
2023/03/23 01:57:26;;;;;;;27.70;21.73;;;11.70;99.90;;;;;;5036908;28;20254;-78
2023/03/23 01:59:57;;;;;;;28.10;23.25;;;11.70;99.90;;;;;;5041381;28;20204;-77
2023/03/23 02:02:26;;;;;;;26.40;21.08;;;11.80;99.90;;;;;;5030441;28;20226;-75
2023/03/23 02:05:00;;;;;;;23.48;21.05;;;11.80;99.90;;;;;;5043125;28;20228;-77
2023/03/23 02:07:27;;;;;;;23.52;20.92;;;11.80;99.90;;;;;;5047379;28;20273;-77
2023/03/23 02:09:54;;;;;;;28.20;22.38;;;11.70;99.90;;;;;;5047478;28;20206;-77
2023/03/23 02:12:21;;;;;;;23.50;20.98;;;11.70;99.90;;;;;;5044136;28;20203;-76
2023/03/23 02:14:48;;;;;;;23.13;20.92;;;11.70;99.90;;;;;;5050911;28;20654;-78
2023/03/23 02:17:23;;;;;;;23.50;19.85;;;11.80;99.90;;;;;;5047702;28;20202;-78
2023/03/23 02:20:07;;;;;;;24.20;20.15;;;11.80;99.90;;;;;;5037119;28;20304;-77
2023/03/23 02:23:04;;;;;;;22.13;19.83;;;11.80;99.90;;;;;;5037898;28;20220;-77
2023/03/23 02:26:05;;;;;;;22.30;18.92;;;11.80;99.90;;;;;;5039228;28;20333;-78
2023/03/23 02:29:04;;;;;;;22.42;20.13;;;11.90;99.90;;;;;;5036814;28;20210;-77
2023/03/23 02:31:58;;;;;;;21.25;18.90;;;11.90;99.90;;;;;;5044213;28;20298;-76
2023/03/23 02:34:29;;;;;;;21.27;19.08;;;11.90;99.90;;;;;;5052280;28;20211;-77
2023/03/23 02:37:01;;;;;;;22.50;20.10;;;12.00;99.90;;;;;;5051204;28;20247;-77
2023/03/23 02:39:32;;;;;;;22.30;20.00;;;12.00;99.90;;;;;;5066148;28;20250;-76
2023/03/23 02:42:03;;;;;;;20.50;18.30;;;11.90;99.90;;;;;;5068863;28;20188;-78
2023/03/23 02:44:31;;;;;;;23.08;20.55;;;12.00;99.90;;;;;;5056024;28;20202;-76
2023/03/23 02:47:01;;;;;;;23.55;20.25;;;12.00;99.90;;;;;;5062825;28;20214;-77
2023/03/23 02:49:33;;;;;;;20.15;18.05;;;12.10;99.90;;;;;;5054931;28;20708;-77
2023/03/23 02:52:02;;;;;;;20.38;18.27;;;12.00;99.90;;;;;;5054255;28;20250;-79
2023/03/23 02:54:30;;;;;;;22.55;18.45;;;12.10;99.90;;;;;;5056528;28;20259;-77
2023/03/23 02:56:58;;;;;;;21.33;19.08;;;12.10;99.90;;;;;;5049878;28;20263;-77
2023/03/23 02:59:25;;;;;;;19.38;17.58;;;12.10;99.90;;;;;;5056035;28;20211;-77
2023/03/23 03:01:58;;;;;;;21.15;18.90;;;12.10;99.90;;;;;;5057147;28;20240;-76
2023/03/23 03:04:29;;;;;;;23.05;18.67;;;12.00;99.90;;;;;;5057699;28;20291;-76
2023/03/23 03:07:08;;;;;;;20.23;18.08;;;12.00;99.90;;;;;;5042678;28;20206;-78
2023/03/23 03:09:43;;;;;;;18.45;16.45;;;12.00;99.90;;;;;;5039185;28;20222;-79
2023/03/23 03:12:19;;;;;;;21.95;19.65;;;12.00;99.90;;;;;;5042460;28;20206;-79
2023/03/23 03:14:53;;;;;;;20.70;17.23;;;12.00;99.90;;;;;;5038747;28;20315;-78
2023/03/23 03:17:24;;;;;;;20.08;17.60;;;12.00;99.90;;;;;;5035905;28;20207;-76
2023/03/23 03:19:57;;;;;;;20.20;18.05;;;12.00;99.90;;;;;;5047266;28;20269;-79
2023/03/23 03:22:29;;;;;;;19.13;16.55;;;11.90;99.90;;;;;;5045248;28;20237;-78
2023/03/23 03:24:58;;;;;;;17.58;15.77;;;12.00;99.90;;;;;;5036528;28;20224;-79
2023/03/23 03:27:26;;;;;;;18.52;16.65;;;12.00;99.90;;;;;;5037653;28;20672;-80
2023/03/23 03:29:58;;;;;;;17.90;16.10;;;11.90;99.90;;;;;;5041164;28;20573;-80
2023/03/23 03:32:31;;;;;;;22.50;17.42;;;11.90;99.90;;;;;;5037128;28;20226;-79
2023/03/23 03:35:01;;;;;;;17.25;15.40;;;11.90;99.90;;;;;;5039548;28;20297;-80
2023/03/23 03:37:37;;;;;;;20.02;17.13;;;11.80;99.90;;;;;;5043297;28;20202;-79
2023/03/23 03:40:10;;;;;;;21.10;17.60;;;11.80;99.90;;;;;;5047793;28;20208;-80
2023/03/23 03:42:37;;;;;;;16.52;14.85;;;11.80;99.90;;;;;;5040921;28;20199;-77
2023/03/23 03:45:05;;;;;;;17.23;15.50;;;11.90;99.90;;;;;;5040802;28;20235;-79
2023/03/23 03:47:32;;;;;;;18.88;16.98;;;12.00;99.90;;;;;;5039538;28;20206;-78
2023/03/23 03:49:59;;;;;;;16.40;14.82;;;12.00;99.90;;;;;;5040791;28;20204;-77
2023/03/23 03:52:27;;;;;;;16.67;14.90;;;12.00;99.90;;;;;;5039171;28;20634;-78
2023/03/23 03:54:55;;;;;;;17.73;15.85;;;12.00;99.90;;;;;;5039300;28;20276;-79
2023/03/23 03:57:22;;;;;;;16.50;14.80;;;11.90;99.90;;;;;;5040919;28;20211;-77
2023/03/23 03:59:49;;;;;;;18.20;15.25;;;11.90;99.90;;;;;;5040085;28;20203;-78
2023/03/23 04:02:19;;;;;;;18.25;15.88;;;12.00;99.90;;;;;;5040548;28;20211;-78
2023/03/23 04:04:47;;;;;;;17.50;15.65;;;12.00;99.90;;;;;;5038643;28;20225;-79
2023/03/23 04:07:16;;;;;;;19.60;15.02;;;12.00;99.90;;;;;;5041447;28;20269;-80
2023/03/23 04:09:43;;;;;;;16.73;14.90;;;12.00;99.90;;;;;;5040348;28;20203;-80
2023/03/23 04:12:11;;;;;;;17.20;15.45;;;12.00;99.90;;;;;;5037053;28;20301;-78
2023/03/23 04:14:38;;;;;;;18.75;15.35;;;12.00;99.90;;;;;;5048451;28;20577;-78
2023/03/23 04:17:06;;;;;;;19.45;13.85;;;12.00;99.90;;;;;;5046197;28;20581;-79
2023/03/23 04:19:34;;;;;;;16.27;13.90;;;12.00;99.90;;;;;;5041625;28;20241;-79
2023/03/23 04:22:01;;;;;;;12.85;11.45;;;12.00;99.90;;;;;;5040941;28;20199;-78
2023/03/23 04:24:31;;;;;;;17.20;13.35;;;12.00;99.90;;;;;;5047650;28;20632;-78
2023/03/23 04:26:58;;;;;;;16.25;13.73;;;12.10;99.90;;;;;;5044380;28;20223;-78
2023/03/23 04:29:27;;;;;;;13.43;12.02;;;11.90;99.90;;;;;;5041080;28;20663;-77
2023/03/23 04:31:55;;;;;;;15.43;12.90;;;11.90;99.90;;;;;;5043164;28;20211;-78
2023/03/23 04:34:23;;;;;;;14.90;10.75;;;11.90;99.90;;;;;;5042243;28;20715;-78
2023/03/23 04:36:50;;;;;;;14.23;10.60;;;11.90;99.90;;;;;;5045219;28;20269;-80
2023/03/23 04:39:17;;;;;;;12.93;11.05;;;11.80;99.90;;;;;;5038731;28;20221;-78
2023/03/23 04:41:45;;;;;;;12.45;10.30;;;11.90;99.90;;;;;;5038951;28;20212;-78
2023/03/23 04:44:17;;;;;;;10.98;9.55;;;11.90;99.90;;;;;;5037792;28;20283;-78
2023/03/23 04:46:49;;;;;;;13.05;9.48;;;11.90;99.90;;;;;;5039073;28;20242;-78
2023/03/23 04:49:21;;;;;;;9.60;8.68;;;11.90;99.90;;;;;;5044219;28;20580;-78
2023/03/23 04:51:50;;;;;;;10.55;9.18;;;11.90;99.90;;;;;;5038484;28;20203;-78
2023/03/23 04:54:17;;;;;;;10.57;8.95;;;12.00;99.90;;;;;;5035425;28;20248;-79
2023/03/23 04:56:44;;;;;;;8.77;7.82;;;12.00;99.90;;;;;;5045957;28;20744;-79
2023/03/23 04:59:13;;;;;;;11.77;8.38;;;12.00;99.90;;;;;;5040068;28;20291;-78
2023/03/23 05:01:44;;;;;;;9.98;8.63;;;12.10;99.90;;;;;;5045337;28;20298;-78
2023/03/23 05:04:16;;;;;;;8.43;7.57;;;12.10;99.90;;;;;;5040708;28;20230;-78
2023/03/23 05:06:44;;;;;;;8.77;7.88;;;12.00;99.90;;;;;;5045830;28;20329;-77
2023/03/23 05:09:11;;;;;;;9.32;7.75;;;12.10;99.90;;;;;;5044355;28;20269;-78
2023/03/23 05:11:38;;;;;;;10.55;8.10;;;12.10;99.90;;;;;;5039987;28;20211;-77
2023/03/23 05:14:05;;;;;;;9.82;7.95;;;12.00;99.90;;;;;;5041667;28;20227;-77
2023/03/23 05:16:32;;;;;;;12.27;8.77;;;12.00;99.90;;;;;;5040675;28;20208;-77
2023/03/23 05:18:58;;;;;;;8.35;7.35;;;12.00;99.90;;;;;;5042385;28;20669;-77
2023/03/23 05:21:27;;;;;;;8.57;7.68;;;12.00;99.90;;;;;;5055975;28;20206;-77
2023/03/23 05:23:55;;;;;;;10.90;7.10;;;12.00;99.90;;;;;;5043465;28;20266;-77
2023/03/23 05:26:23;;;;;;;10.35;7.22;;;12.10;99.90;;;;;;5043631;28;20214;-75
2023/03/23 05:28:52;;;;;;;7.63;6.93;;;12.10;99.90;;;;;;5046932;28;20206;-79
2023/03/23 05:31:19;;;;;;;8.25;6.72;;;12.10;99.90;;;;;;5053236;28;20233;-76
2023/03/23 05:33:46;;;;;;;8.60;6.55;;;12.20;99.90;;;;;;5053713;28;20286;-79
2023/03/23 05:36:14;;;;;;;8.80;7.95;;;12.20;99.90;;;;;;5043057;28;20200;-77
2023/03/23 05:38:45;;;;;;;9.20;8.27;;;12.30;99.90;;;;;;5047059;28;20200;-77
2023/03/23 05:41:12;;;;;;;9.07;8.18;;;12.20;99.90;;;;;;5047412;28;20200;-77
2023/03/23 05:43:39;;;;;;;10.60;8.25;;;12.20;99.90;;;;;;5046291;28;20243;-77
2023/03/23 05:46:06;;;;;;;10.15;8.55;;;12.30;99.90;;;;;;5040798;28;20265;-78
2023/03/23 05:48:33;;;;;;;9.27;7.57;;;12.30;99.90;;;;;;5056682;28;20243;-77
2023/03/23 05:51:00;;;;;;;10.60;9.30;;;12.30;99.90;;;;;;5058198;28;20226;-77
2023/03/23 05:53:27;;;;;;;11.32;9.00;;;12.30;99.90;;;;;;5052827;28;20209;-76
2023/03/23 05:55:59;;;;;;;7.85;7.05;;;12.30;99.90;;;;;;5042540;28;20275;-78
2023/03/23 05:58:26;;;;;;;9.30;8.23;;;12.30;99.90;;;;;;5057808;28;20197;-76
2023/03/23 06:00:53;;;;;;;11.52;10.00;;;12.30;99.90;;;;;;5057529;28;20255;-76
2023/03/23 06:03:22;;;;;;;17.40;9.40;;;12.30;99.90;;;;;;5057619;28;20208;-77
2023/03/23 06:05:50;;;;;;;8.50;7.72;;;12.30;99.90;;;;;;5058674;28;20235;-77
2023/03/23 06:08:16;;;;;;;7.68;6.97;;;12.40;99.90;;;;;;5043458;28;20200;-77
2023/03/23 06:10:43;;;;;;;6.65;6.05;;;12.40;99.90;;;;;;5063719;28;20203;-77
2023/03/23 06:13:11;;;;;;;9.60;7.40;;;12.40;99.90;;;;;;5058033;28;20215;-78
2023/03/23 06:15:38;;;;;;;10.65;6.05;;;12.40;99.90;;;;;;5047650;28;20221;-79
2023/03/23 06:18:05;;;;;;;7.70;6.90;;;12.50;99.90;;;;;;5045786;28;20275;-78
2023/03/23 06:20:35;;;;;;;7.40;6.40;;;12.40;99.90;;;;;;5051485;28;20208;-78
2023/03/23 06:23:03;;;;;;;7.20;6.50;;;12.40;99.90;;;;;;5048017;28;20680;-78
2023/03/23 06:25:30;;;;;;;8.88;5.70;;;12.40;99.90;;;;;;5044257;28;20233;-79
2023/03/23 06:27:57;;;;;;;8.25;5.70;;;12.40;99.90;;;;;;5039867;28;20265;-78
2023/03/23 06:30:26;;;;;;;8.00;6.50;;;12.50;99.90;;;;;;5041685;28;20271;-79
2023/03/23 06:32:53;;;;;;;6.45;5.85;;;12.50;99.90;;;;;;5049586;28;20254;-79
2023/03/23 06:35:20;;;;;;;7.57;5.60;;;12.60;99.90;;;;;;5040117;28;20280;-78
2023/03/23 06:37:47;;;;;;;5.97;5.38;;;12.60;99.90;;;;;;5045937;28;20203;-81
2023/03/23 06:40:14;;;;;;;8.80;5.90;;;12.70;99.90;;;;;;5044652;28;20288;-79
2023/03/23 06:42:42;;;;;;;8.38;5.68;;;12.80;99.90;;;;;;5049860;28;20271;-78
2023/03/23 06:45:09;;;;;;;6.68;5.60;;;12.90;99.90;;;;;;5053083;28;20224;-79
2023/03/23 06:47:38;;;;;;;7.15;6.22;;;12.90;99.90;;;;;;5054561;28;20583;-81
2023/03/23 06:50:07;;;;;;;8.23;7.43;;;12.80;99.90;;;;;;5060631;28;20207;-77
2023/03/23 06:52:34;;;;;;;7.43;6.57;;;12.90;99.90;;;;;;5041956;28;20211;-76
2023/03/23 06:55:01;;;;;;;8.50;7.63;;;12.80;99.90;;;;;;5049975;28;20748;-80
2023/03/23 06:57:27;;;;;;;6.78;6.18;;;12.80;99.90;;;;;;5051039;28;20224;-83
2023/03/23 06:59:54;;;;;;;11.18;8.30;;;12.80;99.90;;;;;;5048881;28;20227;-78
2023/03/23 07:02:21;;;;;;;7.32;6.53;;;12.80;99.90;;;;;;5052281;28;20211;-84
2023/03/23 07:04:50;;;;;;;7.63;6.88;;;12.80;99.90;;;;;;5055072;28;20217;-80
2023/03/23 07:07:18;;;;;;;8.10;7.30;;;12.80;99.90;;;;;;5054854;28;20223;-81
2023/03/23 07:09:50;;;;;;;9.73;8.82;;;12.70;99.90;;;;;;5046492;28;20214;-85
2023/03/23 07:12:17;;;;;;;9.35;7.97;;;12.80;99.90;;;;;;5050229;28;20261;-84
2023/03/23 07:14:44;;;;;;;9.43;8.48;;;13.00;99.90;;;;;;5050983;28;20247;-84
2023/03/23 07:17:11;;;;;;;9.80;8.90;;;13.30;99.90;;;;;;5047203;28;20197;-81
2023/03/23 07:19:38;;;;;;;9.55;8.65;;;13.20;99.90;;;;;;5048784;28;20200;-82
2023/03/23 07:22:07;;;;;;;11.05;9.30;;;13.20;99.90;;;;;;5048920;28;20205;-82
2023/03/23 07:24:34;;;;;;;11.75;10.30;;;13.00;99.90;;;;;;5045630;28;20224;-78
2023/03/23 07:27:01;;;;;;;9.45;8.55;;;12.90;99.90;;;;;;5054605;28;20234;-79
2023/03/23 07:29:28;;;;;;;14.20;10.00;;;12.70;99.90;;;;;;5058502;28;20239;-78
2023/03/23 07:31:55;;;;;;;12.05;10.85;;;12.60;99.90;;;;;;5046018;28;20207;-80
2023/03/23 07:34:22;;;;;;;12.82;11.52;;;12.60;99.90;;;;;;5051170;28;20674;-78
2023/03/23 07:36:49;;;;;;;12.23;10.25;;;12.50;99.90;;;;;;5041978;28;20209;-79
2023/03/23 07:39:17;;;;;;;11.63;8.82;;;12.20;99.90;;;;;;5051566;28;20647;-82
2023/03/23 07:41:44;;;;;;;10.48;8.98;;;12.00;99.90;;;;;;5046097;28;20211;-80
2023/03/23 07:44:11;;;;;;;12.80;8.57;;;11.90;99.90;;;;;;5043634;28;20227;-82
2023/03/23 07:46:38;;;;;;;10.73;8.32;;;11.90;99.90;;;;;;5041849;28;20677;-80
2023/03/23 07:49:05;;;;;;;13.25;8.07;;;11.90;99.90;;;;;;5055499;28;20210;-78
2023/03/23 07:51:33;;;;;;;8.20;7.38;;;11.90;99.90;;;;;;5058354;28;20221;-82
2023/03/23 07:54:02;;;;;;;10.15;7.50;;;11.90;99.90;;;;;;5056489;28;20223;-80
2023/03/23 07:56:30;;;;;;;9.27;7.13;;;11.80;99.90;;;;;;5056590;28;20301;-79
2023/03/23 07:58:57;;;;;;;12.45;7.30;;;11.80;99.90;;;;;;5054932;28;20213;-80
2023/03/23 08:01:24;;;;;;;6.28;4.95;;;11.80;99.90;;;;;;5059483;28;20206;-80
2023/03/23 08:03:54;;;;;;;6.70;3.60;;;11.70;99.90;;;;;;5046036;28;20222;-79
2023/03/23 08:06:21;;;;;;;7.30;4.60;;;11.60;99.90;;;;;;5048106;28;20221;-81
2023/03/23 08:08:48;;;;;;;4.30;3.30;;;11.60;99.90;;;;;;5041684;28;20238;-82
2023/03/23 08:11:15;;;;;;;4.50;3.50;;;11.60;99.90;;;;;;5049044;28;20255;-81
2023/03/23 08:13:43;;;;;;;3.83;2.88;;;11.60;99.90;;;;;;5047714;28;20207;-81
2023/03/23 08:16:10;;;;;;;4.70;3.10;;;11.60;99.90;;;;;;5047359;28;20267;-82
2023/03/23 08:18:38;;;;;;;5.78;3.35;;;11.60;99.90;;;;;;5047782;28;20199;-82
2023/03/23 08:21:09;;;;;;;4.78;2.65;;;11.60;99.90;;;;;;5055139;28;20266;-80
2023/03/23 08:23:36;;;;;;;7.38;2.38;;;11.60;99.90;;;;;;5059192;28;20668;-81
2023/03/23 08:26:04;;;;;;;4.80;2.65;;;11.50;99.90;;;;;;5053562;28;20194;-81
2023/03/23 08:28:31;;;;;;;5.03;2.90;;;11.40;99.90;;;;;;5064415;28;20213;-80
2023/03/23 08:30:59;;;;;;;6.32;2.83;;;11.50;99.90;;;;;;5059362;28;20214;-78
2023/03/23 08:33:27;;;;;;;7.05;2.70;;;11.40;99.90;;;;;;5069723;28;20189;-78
2023/03/23 08:35:57;;;;;;;4.95;2.45;;;11.40;99.90;;;;;;5056991;28;20221;-78
2023/03/23 08:38:24;;;;;;;10.63;3.65;;;11.30;99.90;;;;;;5056165;28;20216;-77
2023/03/23 08:40:52;;;;;;;13.30;3.50;;;11.30;99.90;;;;;;5062370;28;20585;-80
2023/03/23 08:43:19;;;;;;;5.75;3.10;;;11.30;99.90;;;;;;5045195;28;20552;-82
2023/03/23 08:45:46;;;;;;;11.02;3.50;;;11.40;99.90;;;;;;5049003;28;20318;-79
2023/03/23 08:48:15;;;;;;;10.68;3.65;;;11.30;99.90;;;;;;5050042;28;20606;-81
2023/03/23 08:50:41;;;;;;;12.20;4.32;;;11.40;99.90;;;;;;5057734;28;20245;-79
2023/03/23 08:53:09;;;;;;;9.38;3.03;;;11.50;99.90;;;;;;5061794;28;20217;-82
2023/03/23 08:55:36;;;;;;;11.68;3.25;;;11.60;99.90;;;;;;5045162;28;20237;-79
2023/03/23 08:58:03;;;;;;;8.13;3.13;;;11.80;99.90;;;;;;5050685;28;20235;-79
2023/03/23 09:00:30;;;;;;;14.48;4.55;;;11.90;99.90;;;;;;5046382;28;20226;-79
2023/03/23 09:02:57;;;;;;;7.45;3.72;;;11.90;99.90;;;;;;5050468;28;20243;-81
2023/03/23 09:05:28;;;;;;;7.70;3.38;;;12.00;99.90;;;;;;5043640;28;20302;-77
2023/03/23 09:07:58;;;;;;;9.88;3.90;;;12.00;99.90;;;;;;5044948;28;20218;-80
2023/03/23 09:10:26;;;;;;;10.30;3.03;;;12.10;99.90;;;;;;5049508;28;20222;-80
2023/03/23 09:12:55;;;;;;;6.90;4.18;;;12.10;99.90;;;;;;5036387;28;20210;-80
2023/03/23 09:15:23;;;;;;;7.38;3.90;;;12.20;99.90;;;;;;5046541;28;20254;-80
2023/03/23 09:17:51;;;;;;;10.90;4.13;;;12.10;99.90;;;;;;5048398;28;20202;-79
2023/03/23 09:20:23;;;;;;;12.02;4.25;;;12.10;99.90;;;;;;5039214;28;20214;-86
2023/03/23 09:22:54;;;;;;;15.45;7.50;;;12.20;99.90;;;;;;5029812;28;20627;-82
2023/03/23 09:25:25;;;;;;;15.80;4.85;;;12.30;99.90;;;;;;5025935;28;20314;-80
2023/03/23 09:27:56;;;;;;;11.30;6.95;;;12.10;99.90;;;;;;5027055;28;20221;-78
2023/03/23 09:30:24;;;;;;;8.68;4.25;;;12.10;99.90;;;;;;5022168;28;20219;-79
2023/03/23 09:32:51;;;;;;;10.05;4.40;;;12.20;99.90;;;;;;5022234;28;20203;-78
2023/03/23 09:35:21;;;;;;;9.88;4.05;;;12.10;99.90;;;;;;5030321;28;20227;-80
2023/03/23 09:37:49;;;;;;;13.90;4.55;;;12.20;99.90;;;;;;5021698;28;20565;-78
2023/03/23 09:40:20;;;;;;;14.02;3.92;;;12.30;99.90;;;;;;5020680;28;20291;-80
2023/03/23 09:42:57;;;;;;;11.10;4.80;;;12.30;99.90;;;;;;5028450;28;20197;-78
2023/03/23 09:45:30;;;;;;;10.35;4.43;;;12.40;99.90;;;;;;5010682;28;20334;-77
2023/03/23 09:48:20;;;;;;;16.02;4.18;;;12.50;99.90;;;;;;5020830;28;20220;-80
2023/03/23 09:50:51;;;;;;;10.93;4.57;;;12.40;99.90;;;;;;5020968;28;20204;-78
2023/03/23 09:53:24;;;;;;;5.47;3.35;;;12.20;99.90;;;;;;5027610;28;20204;-78
2023/03/23 09:55:52;;;;;;;7.65;2.97;;;12.20;99.90;;;;;;5018835;28;20244;-79
2023/03/23 09:58:27;;;;;;;7.35;4.05;;;12.30;99.90;;;;;;5030981;28;20276;-81
2023/03/23 10:00:58;;;;;;;11.05;4.50;;;12.50;99.90;;;;;;5016062;28;20232;-84
2023/03/23 10:03:31;;;;;;;8.10;3.95;;;12.70;99.90;;;;;;5036693;28;20224;-79
2023/03/23 10:05:58;;;;;;;10.32;4.20;;;13.20;99.90;;;;;;5037493;28;20193;-78
2023/03/23 10:08:29;;;;;;;15.20;3.65;;;13.20;99.90;;;;;;5029258;28;20754;-79
2023/03/23 10:11:03;;;;;;;8.82;3.40;;;13.20;99.90;;;;;;5036259;28;20237;-78
2023/03/23 10:13:43;;;;;;;7.00;3.17;;;13.20;99.90;;;;;;5021840;28;20272;-76
2023/03/23 10:16:13;;;;;;;5.65;3.00;;;13.20;99.90;;;;;;5035851;28;20239;-79
2023/03/23 10:18:44;;;;;;;15.18;5.10;;;13.10;99.90;;;;;;5030252;28;20654;-81
2023/03/23 10:21:16;;;;;;;10.95;3.00;;;13.40;99.90;;;;;;5027759;28;20204;-80
2023/03/23 10:23:57;;;;;;;9.93;3.58;;;13.80;99.90;;;;;;5025182;28;20224;-80
2023/03/23 10:26:35;;;;;;;8.60;3.95;;;13.80;99.90;;;;;;5020956;28;20228;-78
2023/03/23 10:29:13;;;;;;;9.25;5.35;;;13.70;99.90;;;;;;5022048;28;20216;-79
2023/03/23 10:31:44;;;;;;;9.65;3.75;;;13.60;99.90;;;;;;5024062;28;20217;-79
2023/03/23 10:34:16;;;;;;;9.43;4.60;;;13.60;99.90;;;;;;5030597;28;20255;-79
2023/03/23 10:36:57;;;;;;;10.35;4.95;;;13.40;99.90;;;;;;5021462;28;20201;-79
2023/03/23 10:39:28;;;;;;;7.47;4.18;;;13.50;99.90;;;;;;5023920;28;20216;-78
2023/03/23 10:42:02;;;;;;;14.23;3.63;;;13.60;99.90;;;;;;5021232;28;20201;-81
2023/03/23 10:44:31;;;;;;;7.28;4.38;;;13.80;99.90;;;;;;5034628;28;20224;-80
2023/03/23 10:47:00;;;;;;;16.88;4.07;;;14.00;99.90;;;;;;5029730;28;20267;-77
2023/03/23 10:49:32;;;;;;;10.05;4.45;;;13.90;99.90;;;;;;5028738;28;20550;-78
2023/03/23 10:52:17;;;;;;;6.38;4.45;;;13.80;99.90;;;;;;5023022;28;20248;-82
2023/03/23 10:54:52;;;;;;;5.63;4.13;;;13.80;99.90;;;;;;5029232;28;20232;-81
2023/03/23 10:57:26;;;;;;;13.15;4.00;;;13.70;99.90;;;;;;5032028;28;20283;-80
2023/03/23 10:59:59;;;;;;;11.75;3.85;;;13.90;99.90;;;;;;5033468;28;20228;-81
2023/03/23 11:02:27;;;;;;;11.55;5.07;;;13.90;99.90;;;;;;5019110;28;20726;-83
2023/03/23 11:05:04;;;;;;;10.27;3.47;;;14.00;99.90;;;;;;5027849;28;20229;-80
2023/03/23 11:07:34;;;;;;;10.35;4.05;;;13.90;99.90;;;;;;5026864;28;20219;-80
2023/03/23 11:10:09;;;;;;;8.57;3.88;;;13.60;99.90;;;;;;5027047;28;20213;-82
2023/03/23 11:12:37;;;;;;;11.88;3.85;;;13.50;99.90;;;;;;5025218;28;20208;-82
2023/03/23 11:15:17;;;;;;;5.55;4.18;;;13.50;99.90;;;;;;5024914;28;20230;-83
2023/03/23 11:17:44;;;;;;;13.63;4.60;;;13.70;99.90;;;;;;5038190;28;20669;-81
2023/03/23 11:20:12;;;;;;;9.27;3.90;;;13.70;99.90;;;;;;5025759;28;20211;-82
2023/03/23 11:22:41;;;;;;;10.35;3.45;;;13.70;99.90;;;;;;5025790;28;20209;-81
2023/03/23 11:25:14;;;;;;;10.05;4.10;;;13.70;99.90;;;;;;5031657;28;20240;-81
2023/03/23 11:27:43;;;;;;;12.77;5.07;;;13.90;99.90;;;;;;5025818;28;20272;-83
2023/03/23 11:30:19;;;;;;;7.22;3.83;;;14.00;99.90;;;;;;5028838;28;20212;-82
2023/03/23 11:32:47;;;;;;;11.93;4.20;;;13.90;99.90;;;;;;5037545;28;20196;-83
2023/03/23 11:35:18;;;;;;;11.43;4.03;;;13.70;99.90;;;;;;5023675;28;20221;-80
2023/03/23 11:37:48;;;;;;;7.53;4.05;;;13.60;99.90;;;;;;5018107;28;20219;-82
2023/03/23 11:40:18;;;;;;;9.35;4.50;;;13.60;99.90;;;;;;5022422;28;20201;-83
2023/03/23 11:42:49;;;;;;;14.25;5.63;;;13.70;99.90;;;;;;5041056;28;20208;-80
2023/03/23 11:45:20;;;;;;;7.43;3.50;;;14.00;99.90;;;;;;5037311;28;20281;-79
2023/03/23 11:47:57;;;;;;;8.63;4.43;;;14.40;99.90;;;;;;5032963;28;20235;-78
2023/03/23 11:50:28;;;;;;;13.35;4.22;;;14.60;99.90;;;;;;5033452;28;20201;-79
2023/03/23 11:53:03;;;;;;;8.32;4.15;;;14.90;99.90;;;;;;5034919;28;20258;-81
2023/03/23 11:55:37;;;;;;;7.80;4.03;;;15.30;99.90;;;;;;5019128;28;20234;-79
2023/03/23 11:58:14;;;;;;;14.48;4.85;;;15.60;99.90;;;;;;5035788;28;20498;-83
2023/03/23 12:00:47;;;;;;;7.53;3.38;;;15.30;99.90;;;;;;5033552;28;20293;-80
2023/03/23 12:03:33;;;;;;;5.10;3.45;;;15.00;99.90;;;;;;5027608;28;20279;-81
2023/03/23 12:06:05;;;;;;;4.32;3.63;;;14.60;99.90;;;;;;5024036;28;20194;-83
2023/03/23 12:08:56;;;;;;;9.95;4.00;;;14.80;99.90;;;;;;5036626;28;20230;-81
2023/03/23 12:11:32;;;;;;;6.10;2.90;;;15.30;99.90;;;;;;5035449;28;20238;-80
2023/03/23 12:14:16;;;;;;;4.28;2.60;;;15.40;99.90;;;;;;5025144;28;20241;-80
2023/03/23 12:16:57;;;;;;;5.10;3.47;;;15.40;99.90;;;;;;5039215;28;20204;-81
2023/03/23 12:19:32;;;;;;;3.58;2.45;;;15.40;99.90;;;;;;5019034;28;20258;-81
2023/03/23 12:22:09;;;;;;;5.50;2.70;;;15.40;99.90;;;;;;5027991;28;20196;-82
2023/03/23 12:24:48;;;;;;;7.65;3.38;;;15.50;99.90;;;;;;5013091;28;20296;-80
2023/03/23 12:27:24;;;;;;;3.58;2.83;;;15.10;99.90;;;;;;5028351;28;20290;-82
2023/03/23 12:30:19;;;;;;;5.68;3.03;;;15.00;99.90;;;;;;5020932;28;20205;-81
2023/03/23 12:33:12;;;;;;;4.03;2.83;;;15.30;99.90;;;;;;5024363;28;20233;-81
2023/03/23 12:35:49;;;;;;;6.30;3.00;;;15.60;99.90;;;;;;5020098;28;20506;-82
2023/03/23 12:38:46;;;;;;;12.27;2.95;;;15.70;99.90;;;;;;5017620;28;20480;-82
2023/03/23 12:41:18;;;;;;;5.57;2.73;;;15.40;99.90;;;;;;5020308;28;20244;-83
2023/03/23 12:43:54;;;;;;;6.18;3.17;;;14.80;99.90;;;;;;5024783;28;20465;-80
2023/03/23 12:46:37;;;;;;;5.10;2.55;;;14.80;99.90;;;;;;5037658;28;20833;-80
2023/03/23 12:49:07;;;;;;;4.00;2.50;;;14.80;99.90;;;;;;5028790;28;20246;-78
2023/03/23 12:51:41;;;;;;;7.67;2.70;;;14.90;99.90;;;;;;5041845;28;20178;-80
2023/03/23 12:54:13;;;;;;;9.35;3.13;;;15.00;99.90;;;;;;5039866;28;20480;-83
2023/03/23 12:56:46;;;;;;;7.55;3.80;;;15.00;99.90;;;;;;5030308;28;20202;-81